Time;durP1;ratioP1;P1;durP2;ratioP2;P2;SDS_P1;SDS_P2;PMS_P1;PMS_P2;Temp;Humidity;BMP_temperature;BMP_pressure;BME280_temperature;BME280_humidity;BME280_pressure;Samples;Min_cycle;Max_cycle;Signal;HPM_P1;HPM_P2
2021/07/18 00:00:44;;;;;;;;;;;;;;;-144.99;84.79;52227.97;5062685;28;20332;-58
2021/07/18 00:03:10;;;;;;;;;;;;;;;-144.99;84.84;52244.28;5070455;28;19925;-58
2021/07/18 00:05:38;;;;;;;;;;;;;;;-144.99;84.84;52225.94;5070727;28;19970;-58
2021/07/18 00:08:06;;;;;;;;;;;;;;;-144.99;85.05;52240.19;5076437;28;19920;-56
2021/07/18 00:10:34;;;;;;;;;;;;;;;-144.99;85.17;52254.47;5085181;28;19920;-56
2021/07/18 00:13:00;;;;;;;;;;;;;;;-144.99;85.10;52278.91;5050646;28;20378;-56
2021/07/18 00:15:27;;;;;;;;;;;;;;;-144.99;85.46;52248.34;5063652;28;20002;-57
2021/07/18 00:17:53;;;;;;;;;;;;;;;-144.99;85.52;52256.50;5055260;28;20371;-56
2021/07/18 00:20:19;;;;;;;;;;;;;;;-144.99;85.77;52256.50;5072618;28;19955;-56
2021/07/18 00:22:46;;;;;;;;;;;;;;;-144.99;85.74;52266.69;5058332;28;19920;-56
2021/07/18 00:25:12;;;;;;;;;;;;;;;-144.99;85.94;52262.63;5061675;28;19927;-56
2021/07/18 00:27:40;;;;;;;;;;;;;;;-144.99;85.86;52266.69;5051114;28;19925;-54
2021/07/18 00:30:08;;;;;;;;;;;;;;;-144.99;85.84;52250.38;5056512;28;19942;-54
2021/07/18 00:32:34;;;;;;;;;;;;;;;-144.99;86.02;52252.44;5052471;28;19920;-54
2021/07/18 00:35:01;;;;;;;;;;;;;;;-144.99;85.91;52285.03;5066168;28;20296;-55
2021/07/18 00:37:27;;;;;;;;;;;;;;;-144.99;86.34;52268.72;5060342;28;19921;-55
2021/07/18 00:39:54;;;;;;;;;;;;;;;-144.99;86.28;52276.88;5049846;28;19921;-56
2021/07/18 00:42:20;;;;;;;;;;;;;;;-144.99;86.53;52252.44;5050525;28;19921;-58
2021/07/18 00:44:48;;;;;;;;;;;;;;;-144.99;86.79;52242.22;5050214;28;20473;-59
2021/07/18 00:47:14;;;;;;;;;;;;;;;-144.99;86.84;52219.81;5050544;28;20110;-57
2021/07/18 00:49:41;;;;;;;;;;;;;;;-144.99;86.98;52236.13;5057176;28;19927;-58
2021/07/18 00:52:07;;;;;;;;;;;;;;;-144.99;87.04;52227.97;5063736;28;19924;-58
2021/07/18 00:54:34;;;;;;;;;;;;;;;-144.99;87.09;52256.50;5063581;28;19925;-58
2021/07/18 00:57:01;;;;;;;;;;;;;;;-144.99;86.95;52219.81;5068721;28;19956;-58
2021/07/18 00:59:27;;;;;;;;;;;;;;;-144.99;86.93;52289.13;5056372;28;19930;-58
2021/07/18 01:01:55;;;;;;;;;;;;;;;-144.99;87.12;52264.66;5066014;28;20322;-58
2021/07/18 01:04:21;;;;;;;;;;;;;;;-144.99;87.32;52260.56;5075500;28;20017;-59
2021/07/18 01:06:48;;;;;;;;;;;;;;;-144.99;87.52;52236.13;5049982;28;19924;-59
2021/07/18 01:09:15;;;;;;;;;;;;;;;-144.99;87.59;52260.56;5050188;28;20294;-59
2021/07/18 01:11:41;;;;;;;;;;;;;;;-144.99;87.81;52240.19;5050869;28;19921;-59
2021/07/18 01:14:08;;;;;;;;;;;;;;;-144.99;88.14;52252.44;5076400;28;20003;-58
2021/07/18 01:16:34;;;;;;;;;;;;;;;-144.99;88.33;52276.88;5065081;28;19982;-60
2021/07/18 01:19:02;;;;;;;;;;;;;;;-144.99;88.41;52236.13;5061471;28;19976;-57
2021/07/18 01:21:29;;;;;;;;;;;;;;;-144.99;88.50;52244.28;5088799;28;19920;-57
2021/07/18 01:23:57;;;;;;;;;;;;;;;-144.99;88.81;52268.72;5059446;28;19948;-57
2021/07/18 01:26:23;;;;;;;;;;;;;;;-144.99;88.88;52244.28;5054333;28;19921;-56
2021/07/18 01:28:50;;;;;;;;;;;;;;;-144.99;89.19;52238.16;5057930;28;19928;-56
2021/07/18 01:31:17;;;;;;;;;;;;;;;-144.99;89.35;52232.03;5068583;28;19928;-57
2021/07/18 01:33:44;;;;;;;;;;;;;;;-144.99;89.39;52258.53;5067517;28;19920;-57
2021/07/18 01:36:11;;;;;;;;;;;;;;;-144.99;89.55;52276.88;5053871;28;19928;-57
2021/07/18 01:38:37;;;;;;;;;;;;;;;-144.99;89.76;52256.50;5053130;28;19920;-57
2021/07/18 01:41:05;;;;;;;;;;;;;;;-144.99;89.88;52215.75;5053546;28;19927;-57
2021/07/18 01:43:32;;;;;;;;;;;;;;;-144.99;90.16;52276.88;5053182;28;19939;-57
2021/07/18 01:45:58;;;;;;;;;;;;;;;-144.99;90.54;52301.34;5060708;28;19939;-58
2021/07/18 01:48:24;;;;;;;;;;;;;;;-144.99;90.58;52252.44;5059575;28;19924;-59
2021/07/18 01:50:51;;;;;;;;;;;;;;;-144.99;90.92;52242.22;5073118;28;20245;-59
2021/07/18 01:53:17;;;;;;;;;;;;;;;-144.99;90.77;52264.66;5067357;28;20027;-58
2021/07/18 01:55:44;;;;;;;;;;;;;;;-144.99;90.71;52256.50;5077387;28;19920;-59
2021/07/18 01:58:11;;;;;;;;;;;;;;;-144.99;90.91;52252.44;5075157;28;19930;-58
2021/07/18 02:00:38;;;;;;;;;;;;;;;-144.99;91.03;52240.19;5058784;28;19920;-58
2021/07/18 02:03:04;;;;;;;;;;;;;;;-144.99;91.27;52246.31;5065783;28;19921;-58
2021/07/18 02:05:31;;;;;;;;;;;;;;;-144.99;91.09;52207.59;5059454;28;19921;-58
2021/07/18 02:08:04;;;;;;;;;;;;;;;-144.99;91.08;52264.66;5053069;28;20019;-59
2021/07/18 02:10:31;;;;;;;;;;;;;;;-144.99;91.21;52252.44;5086692;22;19966;-67
2021/07/18 02:12:57;;;;;;;;;;;;;;;-144.99;91.29;52246.31;5071173;28;19931;-67
2021/07/18 02:15:25;;;;;;;;;;;;;;;-144.99;91.55;52256.50;5070879;28;19926;-67
2021/07/18 02:17:51;;;;;;;;;;;;;;;-144.99;91.44;52264.66;5063058;28;20528;-66
2021/07/18 02:20:19;;;;;;;;;;;;;;;-144.99;91.78;52260.56;5071575;28;19942;-67
2021/07/18 02:22:46;;;;;;;;;;;;;;;-144.99;91.68;52293.19;5071226;28;20392;-68
2021/07/18 02:25:13;;;;;;;;;;;;;;;-144.99;91.80;52227.97;5070981;28;20015;-69
2021/07/18 02:27:40;;;;;;;;;;;;;;;-144.99;91.84;52305.41;5059134;28;19926;-69
2021/07/18 02:30:08;;;;;;;;;;;;;;;-144.99;92.05;52254.47;5066336;28;19950;-68
2021/07/18 02:32:36;;;;;;;;;;;;;;;-144.99;92.10;52276.88;5071287;28;19955;-68
2021/07/18 02:35:03;;;;;;;;;;;;;;;-144.99;92.36;52207.59;5071240;28;20329;-67
2021/07/18 02:37:29;;;;;;;;;;;;;;;-144.99;92.45;52260.56;5071417;28;19920;-67
2021/07/18 02:39:56;;;;;;;;;;;;;;;-144.99;92.13;52268.72;5070419;28;20048;-67
2021/07/18 02:42:22;;;;;;;;;;;;;;;-144.99;92.38;52258.53;5078273;28;19920;-65
2021/07/18 02:44:49;;;;;;;;;;;;;;;-144.99;92.26;52256.50;5090769;28;19920;-68
2021/07/18 02:47:15;;;;;;;;;;;;;;;-144.99;92.38;52240.19;5091299;28;19924;-67
2021/07/18 02:49:43;;;;;;;;;;;;;;;-144.99;92.63;52289.13;5089340;28;19927;-66
2021/07/18 02:52:09;;;;;;;;;;;;;;;-144.99;92.64;52280.97;5070842;28;20393;-65
2021/07/18 02:54:36;;;;;;;;;;;;;;;-144.99;92.66;52329.88;5076149;28;19954;-64
2021/07/18 02:57:03;;;;;;;;;;;;;;;-144.99;92.68;52240.19;5070337;28;19920;-64
2021/07/18 02:59:29;;;;;;;;;;;;;;;-144.99;92.85;52240.19;5070072;28;19920;-65
2021/07/18 03:01:59;;;;;;;;;;;;;;;-144.99;93.11;52272.81;5070814;28;19927;-65
2021/07/18 03:04:25;;;;;;;;;;;;;;;-144.99;93.03;52238.16;5070199;28;20035;-66
2021/07/18 03:06:53;;;;;;;;;;;;;;;-144.99;93.16;52276.88;5074242;28;19946;-66
2021/07/18 03:09:23;;;;;;;;;;;;;;;-144.99;93.12;52260.56;5070028;28;19928;-66
2021/07/18 03:11:49;;;;;;;;;;;;;;;-144.99;93.02;52289.13;5070479;28;19921;-68
2021/07/18 03:14:16;;;;;;;;;;;;;;;-144.99;93.22;52276.88;5069628;28;19931;-67
2021/07/18 03:16:42;;;;;;;;;;;;;;;-144.99;92.93;52276.88;5069802;28;20007;-68
2021/07/18 03:19:09;;;;;;;;;;;;;;;-144.99;93.32;52211.66;5069498;28;19939;-68
2021/07/18 03:21:35;;;;;;;;;;;;;;;-144.99;93.28;52227.97;5069521;28;20380;-68
2021/07/18 03:24:03;;;;;;;;;;;;;;;-144.99;93.12;52293.19;5069608;28;20252;-67
2021/07/18 03:26:29;;;;;;;;;;;;;;;-144.99;93.36;52232.03;5070365;28;19952;-66
2021/07/18 03:28:56;;;;;;;;;;;;;;;-144.99;93.43;52256.50;5065047;28;20330;-67
2021/07/18 03:31:22;;;;;;;;;;;;;;;-144.99;93.28;52262.63;5069550;28;19920;-67
2021/07/18 03:33:48;;;;;;;;;;;;;;;-144.99;93.29;52293.19;5069821;28;19926;-67
2021/07/18 03:36:15;;;;;;;;;;;;;;;-144.99;93.49;52215.75;5070059;28;20376;-68
2021/07/18 03:38:41;;;;;;;;;;;;;;;-144.99;93.25;52278.91;5070506;28;19965;-67
2021/07/18 03:41:09;;;;;;;;;;;;;;;-144.99;93.08;52258.53;5082778;28;20030;-68
2021/07/18 03:43:36;;;;;;;;;;;;;;;-144.99;93.06;52250.38;5076358;28;19932;-68
2021/07/18 03:46:03;;;;;;;;;;;;;;;-144.99;93.09;52254.47;5079545;28;19974;-66
2021/07/18 03:48:29;;;;;;;;;;;;;;;-144.99;93.00;52252.44;5069820;28;19920;-66
2021/07/18 03:50:56;;;;;;;;;;;;;;;-144.99;92.84;52240.19;5069170;28;19930;-69
2021/07/18 03:53:22;;;;;;;;;;;;;;;-144.99;92.78;52264.66;5069584;28;19920;-65
2021/07/18 03:55:48;;;;;;;;;;;;;;;-144.99;92.54;52242.22;5069046;28;20031;-65
2021/07/18 03:58:16;;;;;;;;;;;;;;;-144.99;92.40;52289.13;5069270;28;19924;-64
2021/07/18 04:00:43;;;;;;;;;;;;;;;-144.99;92.52;52223.88;5068420;28;20020;-65
2021/07/18 04:03:09;;;;;;;;;;;;;;;-144.99;92.43;52256.50;5068873;28;19920;-66
2021/07/18 04:05:35;;;;;;;;;;;;;;;-144.99;92.49;52236.13;5069310;28;19939;-66
2021/07/18 04:08:02;;;;;;;;;;;;;;;-144.99;92.37;52266.69;5074757;28;19920;-66
2021/07/18 04:10:28;;;;;;;;;;;;;;;-144.99;92.55;52268.72;5088974;28;20292;-67
2021/07/18 04:12:56;;;;;;;;;;;;;;;-144.99;92.49;52248.34;5085374;28;19924;-66
2021/07/18 04:15:25;;;;;;;;;;;;;;;-144.99;92.63;52280.97;5069283;28;19965;-65
2021/07/18 04:17:51;;;;;;;;;;;;;;;-144.99;92.53;52280.97;5076932;28;20262;-66
2021/07/18 04:20:18;;;;;;;;;;;;;;;-144.99;92.42;52256.50;5068532;28;19924;-68
2021/07/18 04:22:44;;;;;;;;;;;;;;;-144.99;92.31;52256.50;5076198;28;19938;-69
2021/07/18 04:25:11;;;;;;;;;;;;;;;-144.99;92.24;52270.78;5089119;28;19920;-66
2021/07/18 04:27:38;;;;;;;;;;;;;;;-144.99;92.04;52289.13;5078749;28;19924;-66
2021/07/18 04:30:05;;;;;;;;;;;;;;;-144.99;91.96;52252.44;5068265;28;19939;-67
2021/07/18 04:32:33;;;;;;;;;;;;;;;-144.99;91.46;52230.00;5067835;28;19920;-65
2021/07/18 04:34:59;;;;;;;;;;;;;;;-144.99;91.52;52262.63;5069941;28;19920;-65
2021/07/18 04:37:26;;;;;;;;;;;;;;;-144.99;91.43;52227.97;5089289;28;20198;-65
2021/07/18 04:39:52;;;;;;;;;;;;;;;-144.99;91.37;52232.03;5088667;28;19927;-66
2021/07/18 04:42:18;;;;;;;;;;;;;;;-144.99;91.38;52211.66;5071560;28;19999;-71
2021/07/18 04:44:45;;;;;;;;;;;;;;;-144.99;91.42;52260.56;5070701;28;20356;-70
2021/07/18 04:47:11;;;;;;;;;;;;;;;-144.99;91.02;52205.53;5079655;28;19921;-71
2021/07/18 04:49:39;;;;;;;;;;;;;;;-144.99;90.73;52215.75;5067088;28;20349;-71
2021/07/18 04:52:06;;;;;;;;;;;;;;;-144.99;90.59;52246.31;5066344;28;19946;-71
2021/07/18 04:54:32;;;;;;;;;;;;;;;-144.99;90.32;52203.50;5067801;28;19921;-71
2021/07/18 04:56:58;;;;;;;;;;;;;;;-144.99;90.20;52223.88;5068232;28;19931;-72
2021/07/18 04:59:25;;;;;;;;;;;;;;;-144.99;90.21;52219.81;5058506;28;19975;-70
2021/07/18 05:01:56;;;;;;;;;;;;;;;-144.99;89.90;52227.97;5088299;28;20318;-70
2021/07/18 05:04:22;;;;;;;;;;;;;;;-144.99;89.74;52236.13;5083831;28;20007;-71
2021/07/18 05:06:50;;;;;;;;;;;;;;;-144.99;89.67;52221.84;5088611;28;20003;-70
2021/07/18 05:09:16;;;;;;;;;;;;;;;-144.99;89.48;52215.75;5087033;28;19920;-70
2021/07/18 05:11:45;;;;;;;;;;;;;;;-144.99;89.17;52248.34;5068241;28;20316;-70
2021/07/18 05:14:12;;;;;;;;;;;;;;;-144.99;88.59;52207.59;5068455;28;19920;-70
2021/07/18 05:16:39;;;;;;;;;;;;;;;-144.99;88.35;52266.69;5068458;28;19943;-70
2021/07/18 05:19:05;;;;;;;;;;;;;;;-144.99;88.12;52236.13;5067297;28;19921;-70
2021/07/18 05:21:32;;;;;;;;;;;;;;;-144.99;87.70;52195.34;5068540;28;19920;-69
2021/07/18 05:23:59;;;;;;;;;;;;;;;-144.99;87.58;52242.22;5068213;28;20246;-69
2021/07/18 05:26:26;;;;;;;;;;;;;;;-144.99;87.16;52248.34;5068312;28;19921;-69
2021/07/18 05:28:52;;;;;;;;;;;;;;;-144.99;86.93;52217.78;5067191;28;19926;-69
2021/07/18 05:31:19;;;;;;;;;;;;;;;-144.99;86.90;52238.16;5067993;28;20034;-69
2021/07/18 05:33:45;;;;;;;;;;;;;;;-144.99;86.34;52227.97;5085802;28;19920;-68
2021/07/18 05:36:12;;;;;;;;;;;;;;;-144.99;86.21;52189.25;5088626;28;19919;-68
2021/07/18 05:38:38;;;;;;;;;;;;;;;-144.99;85.56;52203.50;5088461;28;20332;-68
2021/07/18 05:41:06;;;;;;;;;;;;;;;-144.99;85.46;52219.81;5088065;28;19927;-68
2021/07/18 05:43:32;;;;;;;;;;;;;;;-144.99;85.63;52230.00;5070215;28;19927;-67
2021/07/18 05:45:59;;;;;;;;;;;;;;;-144.99;85.45;52215.75;5068108;28;19924;-68
2021/07/18 05:48:25;;;;;;;;;;;;;;;-144.99;84.93;52203.50;5067613;28;19924;-68
2021/07/18 05:50:52;;;;;;;;;;;;;;;-144.99;84.45;52183.13;5067493;28;19936;-66
2021/07/18 05:53:18;;;;;;;;;;;;;;;-144.99;84.38;52174.97;5065055;28;19925;-66
2021/07/18 05:55:44;;;;;;;;;;;;;;;-144.99;84.06;52187.19;5067567;28;20015;-66
2021/07/18 05:58:12;;;;;;;;;;;;;;;-144.99;83.75;52227.97;5067642;28;19920;-66
2021/07/18 06:00:40;;;;;;;;;;;;;;;-144.99;83.37;52199.44;5078692;28;19923;-63
2021/07/18 06:03:06;;;;;;;;;;;;;;;-144.99;83.21;52199.44;5091301;28;19931;-63
2021/07/18 06:05:33;;;;;;;;;;;;;;;-144.99;82.79;52179.06;5091932;28;19997;-63
2021/07/18 06:07:59;;;;;;;;;;;;;;;-144.99;82.38;52183.13;5091356;28;20381;-63
2021/07/18 06:10:25;;;;;;;;;;;;;;;-144.99;81.08;52170.91;5077970;28;20337;-63
2021/07/18 06:12:52;;;;;;;;;;;;;;;-144.99;80.31;52187.19;5090413;28;19924;-63
2021/07/18 06:15:20;;;;;;;;;;;;;;;-144.99;80.10;52170.91;5071039;28;19924;-63
2021/07/18 06:17:46;;;;;;;;;;;;;;;-144.99;80.09;52195.34;5071425;28;19943;-62
2021/07/18 06:20:14;;;;;;;;;;;;;;;-144.99;79.31;52179.06;5070901;28;19926;-62
2021/07/18 06:22:40;;;;;;;;;;;;;;;-144.99;78.98;52179.06;5058403;28;20378;-62
2021/07/18 06:25:09;;;;;;;;;;;;;;;-144.99;78.37;52207.59;5071222;28;20342;-63
2021/07/18 06:27:37;;;;;;;;;;;;;;;-144.99;78.53;52199.44;5071248;28;20002;-62
2021/07/18 06:30:05;;;;;;;;;;;;;;;-144.99;78.46;52221.84;5069286;28;19928;-63
2021/07/18 06:32:33;;;;;;;;;;;;;;;-144.99;78.55;52213.69;5071304;28;19926;-62
2021/07/18 06:34:59;;;;;;;;;;;;;;;-144.99;78.51;52215.75;5087172;28;20393;-62
2021/07/18 06:37:26;;;;;;;;;;;;;;;-144.99;78.43;52191.28;5091469;28;19924;-70
2021/07/18 06:39:52;;;;;;;;;;;;;;;-144.99;78.24;52187.19;5074004;28;19928;-69
2021/07/18 06:42:20;;;;;;;;;;;;;;;-144.99;78.14;52240.19;5070661;28;19924;-70
2021/07/18 06:44:46;;;;;;;;;;;;;;;-144.99;78.20;52174.97;5086906;28;20407;-69
2021/07/18 06:47:13;;;;;;;;;;;;;;;-144.99;78.13;52203.50;5090798;28;19934;-70
2021/07/18 06:49:40;;;;;;;;;;;;;;;-144.99;77.28;52174.97;5086477;28;20007;-70
2021/07/18 06:52:07;;;;;;;;;;;;;;;-144.99;76.79;52187.19;5070543;28;19924;-69
2021/07/18 06:54:33;;;;;;;;;;;;;;;-144.99;76.33;52174.97;5071281;28;19927;-69
2021/07/18 06:56:59;;;;;;;;;;;;;;;-144.99;75.19;52183.13;5069813;28;19921;-68
2021/07/18 06:59:26;;;;;;;;;;;;;;;-144.99;75.25;52187.19;5070177;28;19932;-67
2021/07/18 07:01:52;;;;;;;;;;;;;;;-144.99;74.67;52187.19;5069641;28;19921;-66
2021/07/18 07:04:19;;;;;;;;;;;;;;;-144.99;74.43;52170.91;5084679;28;20019;-66
2021/07/18 07:06:46;;;;;;;;;;;;;;;-144.99;74.02;52138.28;5090076;28;19927;-71
2021/07/18 07:09:13;;;;;;;;;;;;;;;-144.99;73.34;52170.91;5079768;28;20114;-70
2021/07/18 07:11:39;;;;;;;;;;;;;;;-144.99;72.74;52162.75;5073254;28;20255;-70
2021/07/18 07:14:06;;;;;;;;;;;;;;;-144.99;72.30;52187.19;5068603;28;20224;-70
2021/07/18 07:16:32;;;;;;;;;;;;;;;-144.99;72.40;52183.13;5070226;28;19920;-70
2021/07/18 07:18:59;;;;;;;;;;;;;;;-144.99;71.83;52156.63;5069292;28;20107;-70
2021/07/18 07:21:25;;;;;;;;;;;;;;;-144.99;71.36;52179.06;5070177;28;20279;-69
2021/07/18 07:23:53;;;;;;;;;;;;;;;-144.99;70.87;52179.06;5069911;28;19920;-71
2021/07/18 07:26:19;;;;;;;;;;;;;;;-144.99;70.81;52138.28;5069854;28;20003;-69
2021/07/18 07:28:46;;;;;;;;;;;;;;;-144.99;70.81;52134.22;5067648;28;19950;-70
2021/07/18 07:31:12;;;;;;;;;;;;;;;-144.99;70.81;52136.25;5071675;28;19954;-70
2021/07/18 07:33:39;;;;;;;;;;;;;;;-144.99;70.18;52154.59;5066985;28;19979;-70
2021/07/18 07:36:06;;;;;;;;;;;;;;;-144.99;69.34;52162.75;5069594;28;19927;-69
2021/07/18 07:38:33;;;;;;;;;;;;;;;-144.99;67.77;52168.84;5069742;28;19920;-70
2021/07/18 07:41:01;;;;;;;;;;;;;;;-144.99;67.31;52101.59;5070251;28;19924;-70
2021/07/18 07:43:27;;;;;;;;;;;;;;;-144.99;66.97;52142.38;5069255;28;20332;-70
2021/07/18 07:45:54;;;;;;;;;;;;;;;-144.99;66.48;52130.13;5069680;28;20134;-71
2021/07/18 07:48:20;;;;;;;;;;;;;;;-144.99;64.26;52150.53;5069194;28;19932;-70
2021/07/18 07:50:47;;;;;;;;;;;;;;;-144.99;64.50;52146.44;5069482;28;19920;-70
2021/07/18 07:53:14;;;;;;;;;;;;;;;-144.99;64.72;52156.63;5069528;28;20421;-69
2021/07/18 07:55:40;;;;;;;;;;;;;;;-144.99;64.60;52138.28;5071201;28;19920;-69
2021/07/18 07:58:08;;;;;;;;;;;;;;;-144.99;64.76;52134.22;5070887;28;19928;-69
2021/07/18 08:00:34;;;;;;;;;;;;;;;-144.99;64.67;52134.22;5071741;28;20250;-69
2021/07/18 08:03:01;;;;;;;;;;;;;;;-144.99;65.22;52134.22;5070180;28;20364;-69
2021/07/18 08:05:27;;;;;;;;;;;;;;;-144.99;64.85;52138.28;5072310;28;20151;-69
2021/07/18 08:07:54;;;;;;;;;;;;;;;-144.99;64.11;52166.81;5067350;28;20011;-70
2021/07/18 08:10:21;;;;;;;;;;;;;;;-144.99;64.05;52146.44;5081696;28;19927;-70
2021/07/18 08:12:48;;;;;;;;;;;;;;;-144.99;64.12;52126.06;5069418;28;19920;-69
2021/07/18 08:15:17;;;;;;;;;;;;;;;-144.99;64.62;52126.06;5073959;28;20370;-70
2021/07/18 08:17:43;;;;;;;;;;;;;;;-144.99;65.09;52160.72;5068932;28;19924;-70
2021/07/18 08:20:11;;;;;;;;;;;;;;;-144.99;65.08;52126.06;5068273;28;19943;-69
2021/07/18 08:22:38;;;;;;;;;;;;;;;-144.99;64.71;52113.84;5068394;28;20067;-70
2021/07/18 08:25:08;;;;;;;;;;;;;;;-144.99;63.67;52154.59;5068910;28;20389;-69
2021/07/18 08:27:36;;;;;;;;;;;;;;;-144.99;63.26;52134.22;5118962;22;20380;-61
2021/07/18 08:30:02;;;;;;;;;;;;;;;-144.99;63.71;52146.44;5109206;28;20237;-61
2021/07/18 08:32:30;;;;;;;;;;;;;;;-144.99;62.57;52105.69;5102654;28;20281;-59
2021/07/18 08:34:56;;;;;;;;;;;;;;;-144.99;61.79;52130.13;5110377;28;20278;-59
2021/07/18 08:37:23;;;;;;;;;;;;;;;-144.99;61.99;52138.28;5110442;28;19923;-60
2021/07/18 08:39:49;;;;;;;;;;;;;;;-144.99;61.29;52107.72;5110217;28;19966;-60
2021/07/18 08:42:16;;;;;;;;;;;;;;;-144.99;61.57;52109.75;5103406;28;19939;-61
2021/07/18 08:44:42;;;;;;;;;;;;;;;-144.99;62.05;52105.69;5089982;28;19919;-60
2021/07/18 08:47:09;;;;;;;;;;;;;;;-144.99;62.38;52187.19;5097194;28;19926;-60
2021/07/18 08:49:37;;;;;;;;;;;;;;;-144.99;63.48;52146.44;5103025;28;19920;-60
2021/07/18 08:52:03;;;;;;;;;;;;;;;-144.99;64.70;52134.22;5102852;28;20006;-60
2021/07/18 08:54:31;;;;;;;;;;;;;;;-144.99;64.36;52154.59;5090718;28;19920;-59
2021/07/18 08:57:00;;;;;;;;;;;;;;;-144.99;63.73;52156.63;5109365;28;20026;-60
2021/07/18 08:59:26;;;;;;;;;;;;;;;-144.99;62.74;52105.69;5109674;28;19920;-61
2021/07/18 09:01:53;;;;;;;;;;;;;;;-144.99;62.61;52113.84;5108220;28;20027;-61
2021/07/18 09:04:19;;;;;;;;;;;;;;;-144.99;61.97;52077.16;5099315;28;19959;-61
2021/07/18 09:06:49;;;;;;;;;;;;;;;-144.99;60.55;52085.31;5092560;28;20008;-61
2021/07/18 09:09:17;;;;;;;;;;;;;;;-144.99;59.67;52150.53;5102043;28;19928;-61
2021/07/18 09:11:44;;;;;;;;;;;;;;;-144.99;58.82;52146.44;5109931;28;19923;-60
2021/07/18 09:14:12;;;;;;;;;;;;;;;-144.99;59.08;52126.06;5109858;28;20162;-60
2021/07/18 09:16:39;;;;;;;;;;;;;;;-144.99;59.24;52097.53;5108456;28;19927;-60
2021/07/18 09:19:19;;;;;;;;;;;;;;;-144.99;59.85;52117.91;5094567;28;20014;-60
2021/07/18 09:21:50;;;;;;;;;;;;;;;-144.99;59.85;52095.50;5097018;28;20452;-60
2021/07/18 09:24:17;;;;;;;;;;;;;;;-144.99;57.80;52097.53;5096069;28;19926;-61
2021/07/18 09:26:44;;;;;;;;;;;;;;;-144.99;57.34;52075.09;5096634;28;19920;-60
2021/07/18 09:29:24;;;;;;;;;;;;;;;-144.99;57.69;52091.41;5101604;28;19920;-60
2021/07/18 09:32:01;;;;;;;;;;;;;;;-144.99;58.02;52081.22;5094861;28;19919;-60
2021/07/18 09:34:32;;;;;;;;;;;;;;;-144.99;57.58;52093.44;5089014;28;19926;-60
2021/07/18 09:37:04;;;;;;;;;;;;;;;-144.99;56.78;52089.38;5092420;28;19926;-61
2021/07/18 09:39:31;;;;;;;;;;;;;;;-144.99;56.51;52052.69;5109498;28;19919;-61
2021/07/18 09:41:58;;;;;;;;;;;;;;;-144.99;55.37;52073.06;5099804;28;19926;-60
2021/07/18 09:44:25;;;;;;;;;;;;;;;-144.99;54.64;52101.59;5094238;28;20085;-60
2021/07/18 09:46:51;;;;;;;;;;;;;;;-144.99;54.33;52103.66;5094721;28;19927;-59
2021/07/18 09:49:31;;;;;;;;;;;;;;;-144.99;55.10;52121.97;5097319;28;19931;-60
2021/07/18 09:52:12;;;;;;;;;;;;;;;-144.99;55.40;52085.31;5094157;28;19924;-62
2021/07/18 09:54:39;;;;;;;;;;;;;;;-144.99;52.93;52113.84;5102741;28;19943;-59
2021/07/18 09:57:05;;;;;;;;;;;;;;;-144.99;53.24;52093.44;5099150;28;19928;-61
2021/07/18 09:59:32;;;;;;;;;;;;;;;-144.99;52.79;52060.84;5102491;28;19930;-61
2021/07/18 10:01:58;;;;;;;;;;;;;;;-144.99;52.55;52097.53;5099568;28;19926;-62
2021/07/18 10:04:25;;;;;;;;;;;;;;;-144.99;53.88;52064.91;5106372;28;19935;-62
2021/07/18 10:07:04;;;;;;;;;;;;;;;-144.99;54.18;52052.69;5100897;28;19919;-61
2021/07/18 10:09:32;;;;;;;;;;;;;;;-144.99;53.09;52048.63;5095916;28;20345;-60
2021/07/18 10:11:59;;;;;;;;;;;;;;;-144.99;53.24;52105.69;5093721;28;19942;-61
2021/07/18 10:14:25;;;;;;;;;;;;;;;-144.99;53.45;52085.31;5099708;28;20314;-61
2021/07/18 10:16:53;;;;;;;;;;;;;;;-144.99;53.54;52089.38;5105021;28;19919;-61
2021/07/18 10:19:20;;;;;;;;;;;;;;;-144.99;52.98;52115.88;5102149;28;20009;-61
2021/07/18 10:21:47;;;;;;;;;;;;;;;-144.99;52.46;52130.13;5106674;28;20014;-61
2021/07/18 10:24:15;;;;;;;;;;;;;;;-144.99;53.31;52089.38;5102839;28;19920;-60
2021/07/18 10:26:43;;;;;;;;;;;;;;;-144.99;53.06;52030.28;5100506;28;20251;-61
2021/07/18 10:29:11;;;;;;;;;;;;;;;-144.99;52.47;52054.72;5102423;28;20010;-61
2021/07/18 10:31:39;;;;;;;;;;;;;;;-144.99;52.75;52089.38;5093081;28;20419;-61
2021/07/18 10:34:07;;;;;;;;;;;;;;;-144.99;52.35;52040.47;5092729;28;19965;-62
2021/07/18 10:36:35;;;;;;;;;;;;;;;-144.99;52.12;52105.69;5092858;28;19920;-61
2021/07/18 10:39:01;;;;;;;;;;;;;;;-144.99;52.24;52126.06;5092407;28;20377;-61
2021/07/18 10:41:41;;;;;;;;;;;;;;;-144.99;51.85;52050.66;5092080;28;19928;-62
2021/07/18 10:44:12;;;;;;;;;;;;;;;-144.99;51.52;52073.06;5102721;28;19924;-62
2021/07/18 10:46:51;;;;;;;;;;;;;;;-144.99;51.59;52081.22;5107590;28;19926;-61
2021/07/18 10:49:17;;;;;;;;;;;;;;;-144.99;51.27;52040.47;5104881;28;19926;-61
2021/07/18 10:51:44;;;;;;;;;;;;;;;-144.99;51.01;52081.22;5105988;28;20278;-61
2021/07/18 10:54:11;;;;;;;;;;;;;;;-144.99;50.33;52030.28;5106488;28;20006;-60
2021/07/18 10:56:41;;;;;;;;;;;;;;;-144.99;50.09;52034.34;5101166;28;19920;-60
2021/07/18 10:59:08;;;;;;;;;;;;;;;-144.99;49.89;52007.84;5097692;28;19926;-61
2021/07/18 11:01:38;;;;;;;;;;;;;;;-144.99;49.45;52069.00;5099510;28;19930;-61
2021/07/18 11:04:05;;;;;;;;;;;;;;;-144.99;49.78;52079.19;5096649;28;20417;-61
2021/07/18 11:06:33;;;;;;;;;;;;;;;-144.99;49.27;52016.00;5110168;28;20419;-62
2021/07/18 11:09:10;;;;;;;;;;;;;;;-144.99;48.90;51958.94;5096463;28;20013;-61
2021/07/18 11:11:38;;;;;;;;;;;;;;;-144.99;48.39;51981.38;5100412;28;19920;-59
2021/07/18 11:14:23;;;;;;;;;;;;;;;-144.99;47.74;52022.13;5102635;28;19920;-61
2021/07/18 11:16:51;;;;;;;;;;;;;;;-144.99;46.73;51995.63;5104314;28;19924;-63
2021/07/18 11:19:33;;;;;;;;;;;;;;;-144.99;46.58;51958.94;5099679;28;19928;-60
2021/07/18 11:21:59;;;;;;;;;;;;;;;-144.99;46.64;51991.56;5100955;28;20014;-61
2021/07/18 11:24:40;;;;;;;;;;;;;;;-144.99;46.81;52060.84;5098718;28;19942;-61
2021/07/18 11:27:22;;;;;;;;;;;;;;;-144.99;46.92;52044.53;5103611;28;19928;-61
2021/07/18 11:29:48;;;;;;;;;;;;;;;-144.99;46.27;51979.31;5103810;28;20420;-61
2021/07/18 11:32:23;;;;;;;;;;;;;;;-144.99;45.95;52060.84;5103497;28;19954;-61
2021/07/18 11:34:49;;;;;;;;;;;;;;;-144.99;46.26;52036.38;5099468;28;19924;-61
2021/07/18 11:37:16;;;;;;;;;;;;;;;-144.99;46.60;52085.31;5106397;28;19930;-61
2021/07/18 11:39:43;;;;;;;;;;;;;;;-144.99;46.64;52020.09;5103991;28;19926;-61
2021/07/18 11:42:12;;;;;;;;;;;;;;;-144.99;46.73;52016.00;5101199;28;19920;-61
2021/07/18 11:44:40;;;;;;;;;;;;;;;-144.99;46.34;51989.50;5100519;28;19936;-60
2021/07/18 11:47:08;;;;;;;;;;;;;;;-144.99;46.21;51975.25;5101838;28;19927;-60
2021/07/18 11:49:38;;;;;;;;;;;;;;;-144.99;46.10;51999.69;5099772;28;20270;-61
2021/07/18 11:52:05;;;;;;;;;;;;;;;-144.99;45.92;51950.78;5103475;28;19927;-61
2021/07/18 11:54:31;;;;;;;;;;;;;;;-144.99;45.57;51958.94;5104410;28;19920;-61
2021/07/18 11:56:58;;;;;;;;;;;;;;;-144.99;45.22;51979.31;5098364;28;19943;-62
2021/07/18 11:59:28;;;;;;;;;;;;;;;-144.99;44.55;51971.16;5094176;28;20386;-60
2021/07/18 12:01:55;;;;;;;;;;;;;;;-144.99;45.21;51940.59;5105888;28;19999;-60
2021/07/18 12:04:25;;;;;;;;;;;;;;;-144.99;44.95;52028.22;5098730;28;19963;-60
2021/07/18 12:06:55;;;;;;;;;;;;;;;-144.99;44.15;51926.34;5091013;28;19926;-61
2021/07/18 12:09:22;;;;;;;;;;;;;;;-144.99;44.88;51971.16;5098122;28;19920;-61
2021/07/18 12:11:49;;;;;;;;;;;;;;;-144.99;44.73;51954.88;5100100;28;20276;-61
2021/07/18 12:14:16;;;;;;;;;;;;;;;-144.99;44.75;51987.47;5097472;28;20014;-61
2021/07/18 12:16:44;;;;;;;;;;;;;;;-144.99;45.24;51985.44;5101301;28;20251;-61
2021/07/18 12:19:11;;;;;;;;;;;;;;;-144.99;45.83;51983.41;5096670;28;19947;-61
2021/07/18 12:21:38;;;;;;;;;;;;;;;-144.99;45.85;52032.31;5106764;28;19927;-61
2021/07/18 12:24:13;;;;;;;;;;;;;;;-144.99;45.41;51934.50;5102408;28;20023;-61
2021/07/18 12:26:41;;;;;;;;;;;;;;;-144.99;45.41;52028.22;5101354;28;19927;-60